Open Full Screen Window  High Contrast Mode
Wind Gusting 00 knots
08
May 29, 2017 8:06 AM CDT
Weather Information
Wind Direction
  220 °
Wind Speed
  08 kt (9 mph)
Wind Gust
  00 kt (0 mph)
Altimeter
29.89 in
Visibility
10 SM
Temperature
20° C
68° F
Dewpoint
13° C
55° F
Humidity
64%
Sky Condition
Clear
VFR

METAR KAXV 291306Z AUTO 22008KT 10SM CLR 20/13 A2989 RMK AO2

*Background is not an actual portrayal of the airport.